Time;durP1;ratioP1;P1;durP2;ratioP2;P2;SDS_P1;SDS_P2;PMS_P1;PMS_P2;Temp;Humidity;BMP_temperature;BMP_pressure;BME280_temperature;BME280_humidity;BME280_pressure;Samples;Min_cycle;Max_cycle;Signal;HPM_P1;HPM_P2
2023/10/09 00:03:00;;;;;;;6.78;3.45;;;;;;;;;;6092691;23;20014;-73
2023/10/09 00:05:46;;;;;;;8.52;3.67;;;;;;;;;;6067210;23;20431;-71
2023/10/09 00:08:22;;;;;;;6.40;3.65;;;;;;;;;;6067103;23;20017;-71
2023/10/09 00:10:57;;;;;;;10.02;3.88;;;;;;;;;;6090961;23;20040;-70
2023/10/09 00:13:32;;;;;;;8.20;4.05;;;;;;;;;;6092510;23;20364;-72
2023/10/09 00:16:22;;;;;;;9.23;3.90;;;;;;;;;;6066476;23;20403;-73
2023/10/09 00:18:48;;;;;;;8.07;3.83;;;;;;;;;;6066328;23;20010;-73
2023/10/09 00:21:20;;;;;;;7.05;3.80;;;;;;;;;;6066458;23;20017;-73
2023/10/09 00:23:59;;;;;;;6.68;4.00;;;;;;;;;;6066404;23;20069;-72
2023/10/09 00:26:25;;;;;;;9.40;3.78;;;;;;;;;;6092031;23;20013;-72
2023/10/09 00:28:51;;;;;;;7.78;4.40;;;;;;;;;;6066666;23;20030;-72
2023/10/09 00:31:36;;;;;;;7.63;3.60;;;;;;;;;;6092174;23;20009;-70
2023/10/09 00:34:03;;;;;;;7.65;4.03;;;;;;;;;;6066440;23;20455;-72
2023/10/09 00:36:29;;;;;;;5.97;3.35;;;;;;;;;;6092203;23;20025;-72
2023/10/09 00:38:54;;;;;;;7.57;3.60;;;;;;;;;;6066362;23;20014;-74
2023/10/09 00:41:24;;;;;;;8.85;4.63;;;;;;;;;;6092130;23;20081;-71
2023/10/09 00:43:51;;;;;;;6.68;3.75;;;;;;;;;;6091738;23;20010;-73
2023/10/09 00:48:48;;;;;;;8.02;3.85;;;;;;;;;;6066341;23;20010;-72
2023/10/09 00:51:19;;;;;;;5.35;3.55;;;;;;;;;;6090176;23;20030;-71
2023/10/09 00:53:53;;;;;;;4.55;3.13;;;;;;;;;;6090424;23;20085;-74
2023/10/09 00:59:06;;;;;;;9.93;3.63;;;;;;;;;;6101890;23;20010;-72
2023/10/09 01:01:36;;;;;;;6.80;4.10;;;;;;;;;;6091996;23;20007;-73
2023/10/09 01:04:14;;;;;;;10.07;3.75;;;;;;;;;;6066013;23;20455;-72
2023/10/09 01:06:47;;;;;;;9.63;3.72;;;;;;;;;;6043835;23;20077;-72
2023/10/09 01:09:14;;;;;;;5.75;3.17;;;;;;;;;;6066336;23;20010;-72
2023/10/09 01:14:24;;;;;;;5.97;2.88;;;;;;;;;;6101736;23;20006;-72
2023/10/09 01:16:53;;;;;;;6.03;3.22;;;;;;;;;;6065885;23;20077;-73
2023/10/09 01:19:27;;;;;;;6.45;3.53;;;;;;;;;;6091930;23;20010;-72
2023/10/09 01:22:04;;;;;;;6.15;3.38;;;;;;;;;;6066039;23;20033;-71
2023/10/09 01:24:35;;;;;;;7.85;3.95;;;;;;;;;;6066310;23;20002;-72
2023/10/09 01:27:05;;;;;;;8.25;3.40;;;;;;;;;;6091957;23;20485;-72
2023/10/09 01:29:31;;;;;;;6.82;3.42;;;;;;;;;;6092120;23;20037;-72
2023/10/09 01:32:03;;;;;;;5.18;3.05;;;;;;;;;;6091626;23;20475;-73
2023/10/09 01:34:43;;;;;;;5.85;3.40;;;;;;;;;;6092258;23;20078;-74
2023/10/09 01:37:19;;;;;;;9.68;3.58;;;;;;;;;;6092035;23;20018;-73
2023/10/09 01:39:48;;;;;;;7.78;3.25;;;;;;;;;;6091561;23;20053;-73
2023/10/09 01:44:58;;;;;;;10.27;3.50;;;;;;;;;;6102787;23;20010;-71
2023/10/09 01:47:25;;;;;;;5.65;3.30;;;;;;;;;;6067885;23;20006;-71
2023/10/09 01:49:53;;;;;;;7.20;3.75;;;;;;;;;;6067635;23;20017;-72
2023/10/09 01:52:20;;;;;;;5.75;3.45;;;;;;;;;;6067976;23;20010;-71
2023/10/09 01:55:01;;;;;;;7.20;3.22;;;;;;;;;;6093863;23;20010;-74
2023/10/09 01:57:29;;;;;;;6.20;3.20;;;;;;;;;;6068372;23;20335;-74
2023/10/09 01:59:57;;;;;;;5.05;3.50;;;;;;;;;;6067869;23;20062;-71
2023/10/09 02:02:26;;;;;;;9.07;3.28;;;;;;;;;;6067777;23;20006;-72
2023/10/09 02:05:10;;;;;;;7.13;3.58;;;;;;;;;;6067645;23;20081;-72
2023/10/09 02:07:52;;;;;;;5.22;3.45;;;;;;;;;;6093966;23;20034;-71
2023/10/09 02:10:31;;;;;;;6.03;3.50;;;;;;;;;;6068099;23;20096;-72
2023/10/09 02:13:10;;;;;;;9.00;3.95;;;;;;;;;;6067539;23;20452;-72
2023/10/09 02:18:26;;;;;;;11.20;4.10;;;;;;;;;;6093642;23;20077;-73
2023/10/09 02:21:12;;;;;;;18.10;4.65;;;;;;;;;;6093453;23;20007;-71
2023/10/09 02:26:17;;;;;;;9.68;4.07;;;;;;;;;;6093503;23;20010;-73
2023/10/09 02:28:44;;;;;;;7.40;4.18;;;;;;;;;;6067560;23;20007;-72
2023/10/09 02:31:11;;;;;;;4.75;3.20;;;;;;;;;;6093476;23;20003;-73
2023/10/09 02:33:39;;;;;;;5.85;3.40;;;;;;;;;;6067254;23;20014;-73
2023/10/09 02:36:06;;;;;;;10.38;3.70;;;;;;;;;;6066900;23;20023;-71
2023/10/09 02:38:41;;;;;;;6.00;3.28;;;;;;;;;;6067685;23;20352;-72
2023/10/09 02:43:34;;;;;;;8.70;3.67;;;;;;;;;;6093542;23;20014;-73
2023/10/09 02:46:13;;;;;;;6.20;3.58;;;;;;;;;;6066903;23;20084;-72
2023/10/09 02:48:50;;;;;;;7.30;4.05;;;;;;;;;;6092802;23;20459;-73
2023/10/09 02:54:06;;;;;;;8.55;3.65;;;;;;;;;;6102690;23;20041;-71
2023/10/09 02:56:47;;;;;;;6.00;3.33;;;;;;;;;;6091269;23;20065;-72
2023/10/09 02:59:13;;;;;;;6.55;3.60;;;;;;;;;;6093277;23;20371;-71
2023/10/09 03:01:40;;;;;;;7.38;3.83;;;;;;;;;;6092829;23;20006;-74
2023/10/09 03:04:10;;;;;;;6.75;3.30;;;;;;;;;;6066787;23;20010;-71
2023/10/09 03:06:43;;;;;;;7.70;3.83;;;;;;;;;;6092843;23;20013;-72
2023/10/09 03:09:19;;;;;;;4.47;3.20;;;;;;;;;;6067049;23;20017;-74
2023/10/09 03:12:00;;;;;;;4.57;2.90;;;;;;;;;;6092790;23;20002;-74
2023/10/09 03:14:28;;;;;;;7.45;3.47;;;;;;;;;;6092763;23;20002;-72
2023/10/09 03:16:54;;;;;;;8.02;3.67;;;;;;;;;;6066873;23;20427;-72
2023/10/09 03:19:20;;;;;;;7.45;3.53;;;;;;;;;;6092224;23;20088;-72
2023/10/09 03:21:46;;;;;;;8.65;3.03;;;;;;;;;;6067054;23;20249;-71
2023/10/09 03:24:12;;;;;;;27.95;3.95;;;;;;;;;;6066751;23;20014;-73
2023/10/09 03:26:38;;;;;;;5.57;3.22;;;;;;;;;;6093188;23;20130;-73
2023/10/09 03:29:09;;;;;;;21.33;5.30;;;;;;;;;;6092118;23;20002;-72
2023/10/09 03:31:36;;;;;;;5.60;3.38;;;;;;;;;;6067269;23;20053;-71
2023/10/09 03:34:03;;;;;;;5.95;3.33;;;;;;;;;;6066546;23;19998;-73
2023/10/09 03:36:30;;;;;;;5.88;2.88;;;;;;;;;;6061874;23;20357;-73
2023/10/09 03:38:58;;;;;;;4.68;3.42;;;;;;;;;;6061799;23;20007;-72
2023/10/09 03:41:26;;;;;;;8.05;4.40;;;;;;;;;;6062027;23;20478;-75
2023/10/09 03:43:53;;;;;;;5.60;3.05;;;;;;;;;;6061987;23;20061;-71
2023/10/09 03:46:21;;;;;;;6.45;3.13;;;;;;;;;;6063753;23;20007;-72
2023/10/09 03:48:56;;;;;;;6.38;3.20;;;;;;;;;;6063999;23;20010;-72
2023/10/09 03:51:22;;;;;;;7.38;3.13;;;;;;;;;;6062019;23;20037;-73
2023/10/09 03:53:54;;;;;;;7.22;3.15;;;;;;;;;;6062327;23;20051;-72
2023/10/09 03:56:21;;;;;;;4.90;2.63;;;;;;;;;;6063910;23;20093;-73
2023/10/09 03:58:49;;;;;;;6.43;3.53;;;;;;;;;;6087054;23;20082;-72
2023/10/09 04:01:28;;;;;;;7.47;2.90;;;;;;;;;;6086970;23;20441;-73
2023/10/09 04:04:03;;;;;;;6.88;3.40;;;;;;;;;;6066724;23;20336;-73
2023/10/09 04:06:31;;;;;;;7.55;3.25;;;;;;;;;;6065011;23;20011;-73
2023/10/09 04:08:58;;;;;;;5.22;3.03;;;;;;;;;;6063065;23;20033;-73
2023/10/09 04:11:25;;;;;;;4.25;3.17;;;;;;;;;;6062991;23;20037;-74
2023/10/09 04:13:55;;;;;;;5.25;2.95;;;;;;;;;;6062452;23;20010;-74
2023/10/09 04:18:59;;;;;;;4.47;2.85;;;;;;;;;;6073652;23;20277;-74
2023/10/09 04:24:22;;;;;;;8.35;3.10;;;;;;;;;;6063884;23;20085;-73
2023/10/09 04:26:46;;;;;;;8.40;3.38;;;;;;;;;;6063531;23;20062;-74
2023/10/09 04:30:00;;;;;;;7.10;3.22;;;;;;;;;;6061684;23;20010;-75
2023/10/09 04:32:00;;;;;;;5.35;2.90;;;;;;;;;;6062175;23;20093;-76
2023/10/09 04:34:36;;;;;;;4.35;2.63;;;;;;;;;;6047728;23;20089;-74
2023/10/09 04:39:49;;;;;;;4.57;2.70;;;;;;;;;;6101157;23;20037;-75
2023/10/09 04:45:19;;;;;;;7.63;3.10;;;;;;;;;;6097742;23;20022;-72
2023/10/09 04:48:32;;;;;;;5.82;2.80;;;;;;;;;;6087537;23;20080;-73
2023/10/09 04:50:45;;;;;;;7.57;3.33;;;;;;;;;;6086521;23;20444;-75
2023/10/09 04:53:28;;;;;;;5.82;2.78;;;;;;;;;;6056615;23;20399;-74
2023/10/09 04:55:54;;;;;;;4.72;2.65;;;;;;;;;;6090024;23;20010;-73
2023/10/09 04:58:26;;;;;;;7.97;3.15;;;;;;;;;;6065621;23;20010;-77
2023/10/09 05:03:42;;;;;;;;;;;;;;;;;;6100439;23;20010;-75
2023/10/09 05:06:21;;;;;;;3.60;2.30;;;;;;;;;;6089768;23;19999;-74
2023/10/09 05:08:49;;;;;;;9.70;2.88;;;;;;;;;;6066458;23;20545;-72
2023/10/09 05:11:34;;;;;;;6.18;3.60;;;;;;;;;;6089713;23;20025;-72
2023/10/09 05:14:12;;;;;;;12.30;5.07;;;;;;;;;;6063351;23;20155;-78
2023/10/09 05:16:54;;;;;;;11.70;3.33;;;;;;;;;;6065332;23;20018;-74
2023/10/09 05:19:41;;;;;;;5.53;2.85;;;;;;;;;;6093488;23;20006;-76
2023/10/09 05:22:29;;;;;;;5.43;2.78;;;;;;;;;;6066998;23;20061;-73
2023/10/09 05:24:56;;;;;;;4.10;3.00;;;;;;;;;;6091845;23;20376;-73
2023/10/09 05:27:45;;;;;;;7.35;2.90;;;;;;;;;;6093497;23;20069;-73
2023/10/09 05:30:26;;;;;;;6.28;2.83;;;;;;;;;;6093739;23;20010;-74
2023/10/09 05:33:03;;;;;;;3.78;2.65;;;;;;;;;;6046982;23;20014;-74
2023/10/09 05:35:59;;;;;;;4.85;2.92;;;;;;;;;;6100480;23;20515;-73
2023/10/09 05:38:25;;;;;;;5.68;2.85;;;;;;;;;;6095317;23;20082;-73
2023/10/09 05:40:53;;;;;;;4.65;2.97;;;;;;;;;;6068431;23;20451;-75
2023/10/09 05:46:09;;;;;;;7.55;2.88;;;;;;;;;;6097238;23;20077;-74
2023/10/09 05:51:12;;;;;;;8.15;3.20;;;;;;;;;;6094528;23;20010;-75
2023/10/09 06:04:20;;;;;;;5.13;2.67;;;;;;;;;;6091103;23;20142;-75
2023/10/09 06:06:55;;;;;;;5.95;2.80;;;;;;;;;;6093176;23;20014;-77
2023/10/09 06:14:26;;;;;;;8.27;3.25;;;;;;;;;;6089962;23;20070;-74
2023/10/09 06:19:26;;;;;;;7.80;3.37;;;;;;;;;;6103138;23;20015;-75
2023/10/09 06:24:42;;;;;;;5.20;3.15;;;;;;;;;;6097492;23;20014;-74
2023/10/09 06:27:24;;;;;;;4.03;2.47;;;;;;;;;;6068356;23;20032;-73
2023/10/09 06:45:55;;;;;;;7.82;3.08;;;;;;;;;;6102426;23;20059;-74
2023/10/09 06:51:12;;;;;;;4.60;2.83;;;;;;;;;;6099956;23;20010;-76
2023/10/09 06:58:57;;;;;;;6.10;3.65;;;;;;;;;;6100703;23;20109;-72
2023/10/09 07:01:46;;;;;;;8.48;4.22;;;;;;;;;;6089646;23;20380;-75
2023/10/09 07:06:56;;;;;;;13.43;3.80;;;;;;;;;;6106125;23;20013;-72
2023/10/09 07:09:42;;;;;;;9.07;3.67;;;;;;;;;;6100328;23;20002;-74
2023/10/09 07:12:25;;;;;;;6.05;3.22;;;;;;;;;;6089531;23;20003;-73
2023/10/09 07:15:01;;;;;;;7.95;3.67;;;;;;;;;;6062223;23;20379;-76
2023/10/09 07:17:44;;;;;;;6.75;3.15;;;;;;;;;;6085561;23;20097;-74
2023/10/09 07:20:13;;;;;;;8.43;3.70;;;;;;;;;;6086379;23;20414;-75
2023/10/09 07:22:56;;;;;;;11.60;4.22;;;;;;;;;;6059794;23;20073;-77
2023/10/09 07:25:57;;;;;;;9.18;3.22;;;;;;;;;;6063487;23;20353;-77
2023/10/09 07:28:48;;;;;;;11.27;4.20;;;;;;;;;;6084417;23;20033;-77
2023/10/09 07:31:08;;;;;;;7.85;3.10;;;;;;;;;;6082324;23;20014;-75
2023/10/09 07:33:56;;;;;;;8.63;4.05;;;;;;;;;;6085894;23;20010;-76
2023/10/09 07:36:34;;;;;;;10.07;3.30;;;;;;;;;;6061957;23;20018;-75
2023/10/09 07:39:02;;;;;;;11.48;4.00;;;;;;;;;;6061613;23;20006;-77
2023/10/09 07:43:58;;;;;;;7.93;5.10;;;;;;;;;;6077687;23;20014;-75
2023/10/09 07:49:25;;;;;;;8.02;3.30;;;;;;;;;;6062860;23;20037;-75
2023/10/09 07:52:08;;;;;;;11.27;3.65;;;;;;;;;;6084019;23;20380;-79
2023/10/09 07:54:35;;;;;;;9.45;3.90;;;;;;;;;;6086010;23;20365;-76
2023/10/09 07:57:15;;;;;;;10.90;3.90;;;;;;;;;;6088884;23;20007;-77
2023/10/09 07:59:54;;;;;;;6.25;4.20;;;;;;;;;;6064136;23;20002;-77
2023/10/09 08:02:31;;;;;;;8.25;4.50;;;;;;;;;;6062174;23;20271;-76
2023/10/09 08:05:03;;;;;;;13.32;6.13;;;;;;;;;;6088194;23;20093;-79
2023/10/09 08:07:34;;;;;;;8.25;3.90;;;;;;;;;;6092289;23;20654;-76
2023/10/09 08:12:58;;;;;;;6.32;3.90;;;;;;;;;;5101380;27;20965;-76
2023/10/09 08:18:27;;;;;;;11.00;5.15;;;;;;;;;;5081969;28;20071;-77
2023/10/09 08:23:29;;;;;;;9.48;5.18;;;;;;;;;;5073681;28;20414;-75
2023/10/09 08:26:15;;;;;;;6.25;4.03;;;;;;;;;;5080407;28;20043;-77
2023/10/09 08:28:45;;;;;;;8.32;4.25;;;;;;;;;;5078436;28;20028;-75
2023/10/09 08:31:44;;;;;;;21.75;10.48;;;;;;;;;;5077443;28;20154;-74
2023/10/09 08:34:23;;;;;;;13.13;7.88;;;;;;;;;;5073844;28;20499;-76
2023/10/09 08:36:52;;;;;;;10.30;5.70;;;;;;;;;;5082505;28;20032;-74
2023/10/09 08:39:33;;;;;;;11.50;5.15;;;;;;;;;;5081800;28;20123;-74
2023/10/09 08:42:01;;;;;;;25.58;13.27;;;;;;;;;;5082231;28;20598;-75
2023/10/09 08:44:29;;;;;;;13.80;6.20;;;;;;;;;;5073592;28;21122;-74
2023/10/09 08:46:57;;;;;;;8.88;4.82;;;;;;;;;;5079204;28;20036;-74
2023/10/09 08:49:23;;;;;;;12.27;5.18;;;;;;;;;;5076707;28;20036;-75
2023/10/09 08:51:52;;;;;;;13.68;5.13;;;;;;;;;;5079522;28;20329;-77
2023/10/09 08:54:18;;;;;;;14.18;9.30;;;;;;;;;;5072278;28;20185;-73
2023/10/09 08:56:52;;;;;;;20.25;9.35;;;;;;;;;;5090342;28;20034;-76
2023/10/09 08:59:19;;;;;;;9.82;5.00;;;;;;;;;;5101364;28;20042;-74
2023/10/09 09:01:53;;;;;;;9.35;5.43;;;;;;;;;;5080707;28;20384;-75
2023/10/09 09:04:41;;;;;;;6.65;4.43;;;;;;;;;;5074106;28;20032;-74
2023/10/09 09:07:31;;;;;;;12.73;8.88;;;;;;;;;;5082579;28;20055;-75
2023/10/09 09:10:21;;;;;;;10.38;5.40;;;;;;;;;;5097021;28;20028;-76
2023/10/09 09:13:10;;;;;;;10.65;5.35;;;;;;;;;;5069139;28;20041;-76
2023/10/09 09:15:39;;;;;;;22.10;11.68;;;;;;;;;;5082319;28;20523;-77
2023/10/09 09:18:10;;;;;;;11.15;6.85;;;;;;;;;;5079383;28;20035;-78
2023/10/09 09:20:45;;;;;;;13.48;5.57;;;;;;;;;;5102436;27;20031;-77
2023/10/09 09:23:12;;;;;;;12.95;5.05;;;;;;;;;;5066818;28;20115;-75
2023/10/09 09:25:58;;;;;;;12.30;6.78;;;;;;;;;;5064119;28;20645;-76
2023/10/09 09:28:26;;;;;;;10.23;5.72;;;;;;;;;;5063106;28;20036;-77
2023/10/09 09:30:53;;;;;;;15.75;6.60;;;;;;;;;;5062730;28;20078;-75
2023/10/09 09:33:40;;;;;;;16.52;6.88;;;;;;;;;;5055604;28;20029;-76
2023/10/09 09:36:11;;;;;;;8.85;5.72;;;;;;;;;;5063134;28;20059;-76
2023/10/09 09:38:50;;;;;;;13.55;5.93;;;;;;;;;;5061619;28;20361;-75
2023/10/09 09:41:27;;;;;;;11.18;5.22;;;;;;;;;;5062310;28;20173;-74
2023/10/09 09:44:01;;;;;;;10.98;5.80;;;;;;;;;;5057800;28;20032;-74
2023/10/09 09:46:35;;;;;;;11.73;5.68;;;;;;;;;;5061220;28;20398;-75
2023/10/09 09:49:02;;;;;;;13.98;7.70;;;;;;;;;;5064170;28;20025;-74
2023/10/09 09:51:33;;;;;;;13.18;6.85;;;;;;;;;;5057617;28;20435;-75
2023/10/09 09:54:10;;;;;;;18.20;9.68;;;;;;;;;;5056337;28;20375;-76
2023/10/09 09:56:40;;;;;;;9.55;6.75;;;;;;;;;;5065556;28;20058;-77
2023/10/09 09:59:08;;;;;;;12.73;6.45;;;;;;;;;;5059487;28;20183;-76
2023/10/09 10:01:39;;;;;;;13.20;6.15;;;;;;;;;;5057119;28;20028;-76
2023/10/09 10:04:13;;;;;;;10.20;5.82;;;;;;;;;;5057674;28;20086;-73
2023/10/09 10:06:44;;;;;;;12.95;7.32;;;;;;;;;;5057210;28;20130;-77
2023/10/09 10:09:10;;;;;;;15.55;6.32;;;;;;;;;;5063394;28;20040;-74
2023/10/09 10:11:51;;;;;;;10.38;5.90;;;;;;;;;;5060192;28;20043;-75
2023/10/09 10:14:28;;;;;;;10.40;5.55;;;;;;;;;;5058791;28;20028;-75
2023/10/09 10:17:27;;;;;;;9.25;5.55;;;;;;;;;;5053603;28;20047;-75
2023/10/09 10:22:47;;;;;;;13.00;6.35;;;;;;;;;;5046663;28;20078;-75
2023/10/09 10:25:35;;;;;;;9.18;4.78;;;;;;;;;;5060966;28;20465;-75
2023/10/09 10:31:04;;;;;;;10.93;5.80;;;;;;;;;;5061915;28;20170;-75
2023/10/09 10:33:54;;;;;;;10.68;4.85;;;;;;;;;;5057219;28;20036;-74
2023/10/09 10:36:22;;;;;;;12.02;6.35;;;;;;;;;;5062141;28;20045;-75
2023/10/09 10:39:20;;;;;;;14.00;6.20;;;;;;;;;;5062954;28;20028;-75
2023/10/09 10:41:59;;;;;;;11.02;6.03;;;;;;;;;;5059183;28;20346;-75
2023/10/09 10:44:34;;;;;;;10.07;5.80;;;;;;;;;;5056197;28;20082;-75
2023/10/09 10:47:00;;;;;;;18.88;10.00;;;;;;;;;;5060796;28;20036;-75
2023/10/09 10:49:36;;;;;;;8.70;4.93;;;;;;;;;;5079488;28;20028;-74
2023/10/09 10:52:15;;;;;;;10.13;6.00;;;;;;;;;;5053974;28;20032;-73
2023/10/09 10:57:29;;;;;;;11.23;5.03;;;;;;;;;;5052742;28;20028;-76
2023/10/09 11:02:52;;;;;;;9.65;5.55;;;;;;;;;;5037808;28;20048;-74
2023/10/09 11:05:23;;;;;;;7.68;4.53;;;;;;;;;;5061859;28;20032;-75
2023/10/09 11:07:52;;;;;;;13.80;5.97;;;;;;;;;;5055451;28;20563;-76
2023/10/09 11:10:31;;;;;;;11.63;5.03;;;;;;;;;;5064581;28;20032;-77
2023/10/09 11:15:44;;;;;;;13.65;5.80;;;;;;;;;;5063066;28;20024;-75
2023/10/09 11:18:35;;;;;;;13.80;6.70;;;;;;;;;;5063141;28;20033;-77
2023/10/09 11:26:25;;;;;;;8.75;4.97;;;;;;;;;;5059144;28;20040;-73
2023/10/09 11:29:23;;;;;;;12.43;6.10;;;;;;;;;;5067344;28;20206;-78
2023/10/09 11:32:03;;;;;;;12.60;6.65;;;;;;;;;;5069466;28;20048;-79
2023/10/09 11:34:34;;;;;;;12.75;6.85;;;;;;;;;;5054225;28;20067;-79
2023/10/09 11:37:15;;;;;;;10.57;5.32;;;;;;;;;;5053957;28;20138;-76
2023/10/09 11:39:50;;;;;;;12.48;5.97;;;;;;;;;;5056818;28;20058;-75
2023/10/09 11:45:19;;;;;;;12.82;6.00;;;;;;;;;;5055687;28;20038;-77
2023/10/09 11:48:00;;;;;;;;;;;;;;;;;;5058731;28;20052;-77
2023/10/09 11:53:43;;;;;;;13.25;6.13;;;;;;;;;;5062557;28;20037;-77
2023/10/09 11:56:13;;;;;;;10.57;6.50;;;;;;;;;;5047864;28;20040;-77
2023/10/09 11:58:40;;;;;;;14.85;7.78;;;;;;;;;;5061173;28;20020;-74
2023/10/09 12:01:20;;;;;;;11.40;6.55;;;;;;;;;;5060992;28;20060;-72
2023/10/09 12:03:49;;;;;;;12.45;6.60;;;;;;;;;;5054417;28;20056;-75
2023/10/09 12:06:19;;;;;;;13.32;5.45;;;;;;;;;;5068110;28;20473;-76
2023/10/09 12:08:48;;;;;;;9.77;6.20;;;;;;;;;;5071958;28;20035;-76
2023/10/09 12:11:28;;;;;;;10.07;6.20;;;;;;;;;;5068711;28;20040;-75
2023/10/09 12:13:57;;;;;;;11.98;7.18;;;;;;;;;;5067041;28;20157;-74
2023/10/09 12:16:27;;;;;;;8.95;5.85;;;;;;;;;;5068103;28;20031;-75
2023/10/09 12:18:57;;;;;;;11.25;5.82;;;;;;;;;;5070762;28;20032;-76
2023/10/09 12:21:23;;;;;;;14.38;6.10;;;;;;;;;;5073485;28;20025;-75
2023/10/09 12:23:50;;;;;;;10.57;6.10;;;;;;;;;;5068225;28;20028;-75
2023/10/09 12:26:15;;;;;;;13.55;5.47;;;;;;;;;;5062718;28;20414;-75
2023/10/09 12:28:45;;;;;;;11.88;6.07;;;;;;;;;;5059119;28;20675;-74
2023/10/09 12:31:15;;;;;;;10.70;6.28;;;;;;;;;;5063529;28;20039;-75
2023/10/09 12:33:54;;;;;;;9.32;5.60;;;;;;;;;;5053064;28;20035;-75
2023/10/09 12:36:20;;;;;;;12.00;5.78;;;;;;;;;;5058109;28;20093;-72
2023/10/09 12:38:50;;;;;;;8.90;5.05;;;;;;;;;;5056503;28;20036;-75
2023/10/09 12:41:19;;;;;;;11.52;6.18;;;;;;;;;;5060046;28;20026;-75
2023/10/09 12:43:52;;;;;;;12.10;5.68;;;;;;;;;;5057074;28;20538;-76
2023/10/09 12:46:22;;;;;;;8.98;5.07;;;;;;;;;;5058662;28;20039;-77
2023/10/09 12:48:54;;;;;;;9.20;4.90;;;;;;;;;;5059779;28;20911;-77
2023/10/09 12:51:20;;;;;;;9.00;5.28;;;;;;;;;;5055331;28;20146;-73
2023/10/09 12:53:54;;;;;;;12.65;5.97;;;;;;;;;;5036527;28;20033;-75
2023/10/09 12:56:22;;;;;;;12.55;5.28;;;;;;;;;;5046338;28;20043;-74
2023/10/09 12:58:56;;;;;;;12.57;5.55;;;;;;;;;;5064274;28;20031;-74
2023/10/09 13:01:22;;;;;;;8.75;5.05;;;;;;;;;;5063380;28;20035;-76
2023/10/09 13:03:49;;;;;;;12.50;5.10;;;;;;;;;;5049023;28;21452;-74
2023/10/09 13:06:23;;;;;;;10.52;5.05;;;;;;;;;;5063272;28;20376;-77
2023/10/09 13:08:49;;;;;;;13.90;6.40;;;;;;;;;;5050921;28;20694;-73
2023/10/09 13:11:21;;;;;;;11.30;5.75;;;;;;;;;;5063818;28;20896;-76
2023/10/09 13:13:50;;;;;;;9.43;5.60;;;;;;;;;;5054480;28;20400;-77
2023/10/09 13:16:27;;;;;;;8.57;4.70;;;;;;;;;;5065571;28;20035;-76
2023/10/09 13:18:56;;;;;;;11.18;5.45;;;;;;;;;;5070025;28;20032;-75
2023/10/09 13:21:22;;;;;;;7.90;4.80;;;;;;;;;;5057798;28;20465;-76
2023/10/09 13:23:54;;;;;;;11.25;5.45;;;;;;;;;;5057390;28;20053;-75
2023/10/09 13:26:29;;;;;;;;;;;;;;;;;;5062075;28;20047;-76
2023/10/09 13:28:59;;;;;;;10.50;5.05;;;;;;;;;;5086696;27;19930;-75
2023/10/09 13:31:26;;;;;;;11.73;5.65;;;;;;;;;;5045444;28;20040;-75
2023/10/09 13:33:56;;;;;;;14.60;6.95;;;;;;;;;;5059631;28;20413;-72
2023/10/09 13:36:34;;;;;;;11.77;6.07;;;;;;;;;;5057115;28;20185;-74
2023/10/09 13:42:01;;;;;;;12.52;5.55;;;;;;;;;;5056241;28;20068;-79
2023/10/09 13:44:34;;;;;;;13.43;6.50;;;;;;;;;;5057968;28;20688;-76
2023/10/09 13:47:04;;;;;;;9.32;5.60;;;;;;;;;;5060784;28;20036;-77
2023/10/09 13:49:31;;;;;;;11.50;5.80;;;;;;;;;;5063043;28;20036;-75
2023/10/09 13:52:01;;;;;;;12.30;5.50;;;;;;;;;;5061538;28;20155;-74
2023/10/09 13:56:58;;;;;;;;;;;;;;;;;;5058461;28;20090;-76
2023/10/09 13:59:30;;;;;;;10.52;5.53;;;;;;;;;;5057170;28;19917;-76
2023/10/09 14:01:56;;;;;;;10.55;5.93;;;;;;;;;;5051548;28;20035;-77
2023/10/09 14:04:28;;;;;;;11.85;5.53;;;;;;;;;;5062131;28;20042;-75
2023/10/09 14:06:58;;;;;;;13.32;5.00;;;;;;;;;;5065011;28;20266;-74
2023/10/09 14:12:13;;;;;;;22.75;6.18;;;;;;;;;;5061786;28;20120;-75
2023/10/09 14:14:48;;;;;;;18.25;9.13;;;;;;;;;;5062263;28;20032;-76
2023/10/09 14:17:23;;;;;;;16.00;6.45;;;;;;;;;;5062829;28;20502;-75
2023/10/09 14:19:50;;;;;;;13.73;5.38;;;;;;;;;;5061492;28;20033;-76
2023/10/09 14:22:26;;;;;;;12.65;4.68;;;;;;;;;;5067834;28;21166;-76
2023/10/09 14:24:59;;;;;;;10.98;5.43;;;;;;;;;;5063102;28;20484;-76
2023/10/09 14:27:29;;;;;;;11.18;5.50;;;;;;;;;;5063393;28;20040;-75
2023/10/09 14:30:12;;;;;;;11.90;5.25;;;;;;;;;;5063742;28;20064;-75
2023/10/09 14:32:43;;;;;;;8.57;4.80;;;;;;;;;;5060231;28;20139;-75
2023/10/09 14:35:13;;;;;;;16.20;6.60;;;;;;;;;;5061935;28;20042;-75
2023/10/09 14:37:39;;;;;;;12.18;5.90;;;;;;;;;;5062855;28;20021;-74
2023/10/09 14:40:20;;;;;;;13.07;6.05;;;;;;;;;;5067330;28;20454;-75
2023/10/09 14:42:52;;;;;;;11.50;5.05;;;;;;;;;;5059064;28;20540;-74
2023/10/09 14:45:21;;;;;;;12.80;5.07;;;;;;;;;;5058812;28;20035;-76
2023/10/09 14:47:47;;;;;;;11.82;5.40;;;;;;;;;;5062758;28;20043;-75
2023/10/09 14:50:13;;;;;;;10.52;5.28;;;;;;;;;;5073569;28;20028;-75
2023/10/09 14:52:39;;;;;;;13.55;5.05;;;;;;;;;;5048475;28;20029;-75
2023/10/09 14:55:06;;;;;;;11.45;5.50;;;;;;;;;;5068654;28;20036;-75
2023/10/09 14:57:33;;;;;;;13.45;5.32;;;;;;;;;;5073992;28;20016;-74
2023/10/09 15:00:00;;;;;;;9.40;4.78;;;;;;;;;;5068871;28;20029;-76
2023/10/09 15:02:25;;;;;;;14.35;6.72;;;;;;;;;;5059540;28;20035;-77
2023/10/09 15:04:52;;;;;;;11.88;5.30;;;;;;;;;;5070041;28;20028;-78
2023/10/09 15:07:18;;;;;;;10.43;5.18;;;;;;;;;;5069916;28;20166;-76
2023/10/09 15:09:44;;;;;;;12.57;5.53;;;;;;;;;;5055319;28;20111;-77
2023/10/09 15:12:11;;;;;;;15.10;4.57;;;;;;;;;;5060637;28;20148;-76
2023/10/09 15:14:39;;;;;;;10.55;5.10;;;;;;;;;;5066650;28;20464;-74
2023/10/09 15:17:06;;;;;;;15.48;5.30;;;;;;;;;;5072308;28;20051;-74
2023/10/09 15:19:32;;;;;;;15.00;5.10;;;;;;;;;;5065266;28;20078;-75
2023/10/09 15:21:59;;;;;;;10.38;4.45;;;;;;;;;;5072076;28;20032;-74
2023/10/09 15:24:25;;;;;;;52.42;19.90;;;;;;;;;;5064186;28;20025;-75
2023/10/09 15:26:57;;;;;;;11.20;4.82;;;;;;;;;;5066234;28;20033;-75
2023/10/09 15:29:28;;;;;;;13.02;5.57;;;;;;;;;;5064726;28;20098;-75
2023/10/09 15:32:14;;;;;;;12.60;5.43;;;;;;;;;;5077201;28;20097;-74
2023/10/09 15:34:41;;;;;;;9.80;4.95;;;;;;;;;;5048081;28;20024;-74
2023/10/09 15:37:07;;;;;;;10.27;5.20;;;;;;;;;;5060583;28;20171;-74
2023/10/09 15:39:35;;;;;;;15.05;5.57;;;;;;;;;;5066346;28;20029;-74
2023/10/09 15:42:04;;;;;;;13.70;5.68;;;;;;;;;;5084618;28;20038;-74
2023/10/09 15:44:33;;;;;;;10.02;5.22;;;;;;;;;;5064302;28;20310;-75
2023/10/09 15:46:59;;;;;;;10.20;4.88;;;;;;;;;;5075632;28;20038;-74
2023/10/09 15:49:30;;;;;;;12.30;5.20;;;;;;;;;;5078935;28;20241;-76
2023/10/09 15:51:57;;;;;;;12.70;5.57;;;;;;;;;;5066087;28;20353;-74
2023/10/09 15:54:24;;;;;;;13.63;5.22;;;;;;;;;;5067342;28;20032;-74
2023/10/09 15:56:49;;;;;;;12.18;6.50;;;;;;;;;;5050745;28;20020;-74
2023/10/09 15:59:18;;;;;;;11.23;5.50;;;;;;;;;;5068167;28;20090;-75
2023/10/09 16:01:45;;;;;;;13.18;6.00;;;;;;;;;;5069576;28;20016;-75
2023/10/09 16:04:10;;;;;;;13.50;6.28;;;;;;;;;;5069016;28;20111;-73
2023/10/09 16:06:39;;;;;;;10.70;5.15;;;;;;;;;;5069476;28;20116;-74
2023/10/09 16:09:05;;;;;;;9.73;5.32;;;;;;;;;;5068872;28;20020;-75
2023/10/09 16:11:33;;;;;;;17.10;6.63;;;;;;;;;;5068440;28;20123;-73
2023/10/09 16:14:00;;;;;;;13.02;5.65;;;;;;;;;;5069780;28;20346;-74
2023/10/09 16:16:30;;;;;;;9.43;5.13;;;;;;;;;;5068002;28;20036;-75
2023/10/09 16:19:00;;;;;;;12.15;5.78;;;;;;;;;;5067657;28;20020;-73
2023/10/09 16:21:26;;;;;;;9.15;5.20;;;;;;;;;;5051231;28;20043;-76
2023/10/09 16:23:53;;;;;;;12.70;5.80;;;;;;;;;;5067797;28;20448;-74
2023/10/09 16:26:24;;;;;;;13.40;5.75;;;;;;;;;;5069739;28;20098;-74
2023/10/09 16:28:51;;;;;;;9.77;5.50;;;;;;;;;;5069690;28;20024;-75
2023/10/09 16:31:23;;;;;;;15.55;7.35;;;;;;;;;;5071989;28;20473;-74
2023/10/09 16:33:48;;;;;;;12.40;5.85;;;;;;;;;;5073353;28;20073;-74
2023/10/09 16:36:17;;;;;;;9.77;5.63;;;;;;;;;;5074689;28;20403;-74
2023/10/09 16:38:43;;;;;;;10.07;5.15;;;;;;;;;;5074572;28;20023;-73
2023/10/09 16:41:16;;;;;;;14.52;6.25;;;;;;;;;;5072507;28;20025;-75
2023/10/09 16:43:43;;;;;;;12.80;5.35;;;;;;;;;;5073171;28;20090;-75
2023/10/09 16:46:08;;;;;;;7.68;5.40;;;;;;;;;;5071422;28;20044;-74
2023/10/09 16:48:39;;;;;;;12.30;5.95;;;;;;;;;;5073224;28;20100;-73
2023/10/09 16:51:08;;;;;;;10.18;5.07;;;;;;;;;;5073561;28;20074;-74
2023/10/09 16:53:36;;;;;;;12.15;4.88;;;;;;;;;;5072095;28;20051;-73
2023/10/09 16:56:09;;;;;;;15.00;5.30;;;;;;;;;;5055449;28;20429;-76
2023/10/09 16:58:38;;;;;;;10.40;5.35;;;;;;;;;;5074003;28;20024;-75
2023/10/09 17:01:10;;;;;;;10.38;5.10;;;;;;;;;;5055653;28;20025;-75
2023/10/09 17:03:41;;;;;;;10.38;5.10;;;;;;;;;;5073672;28;20020;-75
2023/10/09 17:06:09;;;;;;;10.40;5.10;;;;;;;;;;5072495;28;20119;-76
2023/10/09 17:08:42;;;;;;;14.02;5.93;;;;;;;;;;5071466;28;20023;-74
2023/10/09 17:11:20;;;;;;;12.70;4.72;;;;;;;;;;5071253;28;20401;-74
2023/10/09 17:13:49;;;;;;;17.23;6.82;;;;;;;;;;5071417;28;20182;-76
2023/10/09 17:16:17;;;;;;;13.48;5.45;;;;;;;;;;5071600;28;20032;-74
2023/10/09 17:18:53;;;;;;;10.20;5.30;;;;;;;;;;5071707;28;20052;-75
2023/10/09 17:21:23;;;;;;;8.70;5.47;;;;;;;;;;5071086;28;20020;-75
2023/10/09 17:23:50;;;;;;;12.75;6.45;;;;;;;;;;5071655;28;20507;-73
2023/10/09 17:26:19;;;;;;;12.70;5.93;;;;;;;;;;5071599;28;20031;-75